Cabanatuan, Philippines

5:56 AM PHT on January 27, 2015 (GMT +0800)
Clark International | Change Station
CLOSE
Current Station
Airport
Location: Angeles / Pampanga,
Elevation: 509 ft
Nearby Weather Stations

Elev 509 ft 15.19 °N, 120.56 °E | Updated -185 second ago

Scattered Clouds
Scattered Clouds
72 °F
Feels Like 72 °F
N
8
Wind Variable Wind from NW

Today
High -- | Low -- °F
--% Chance of Precip.
Yesterday
High -- | Low -- °F
Precip. -- in
6:26 AM 5:51 PM
Waxing Crescent, 47% visible
Pressure 29.95 in
Visibility 6.2 miles
Clouds Few 4200 ft
Scattered Clouds 30000 ft
Dew Point 66 °F
Humidity 83%
Rainfall 0.00 in
Snow Depth Not available.
UV 0 out of 12
Pollen Not available.
Air Quality Not available.
Flu Activity Not available.
METAR RPLC 262200Z 31007KT 9999 FEW042 SCT300 22/19 Q1014 RMK NOSIG A2995

More Conditions Fewer Conditions

Pressure 29.95 in
Visibility 6.2 miles
Clouds Few 4200 ft
Scattered Clouds 30000 ft
Dew Point 66 °F
Humidity 83%
Rainfall 0.00 in
Snow Depth Not available.
UV 0 out of 12
Pollen Not available.
Air Quality Not available.
Flu Activity Not available.
METAR RPLC 262200Z 31007KT 9999 FEW042 SCT300 22/19 Q1014 RMK NOSIG A2995

More Conditions Fewer Conditions

10-Day Weather Forecast

Almanac

Astronomy

Jan. 27, 2015 Rise Set
Actual Time
Civil Twilight
Nautical Twilight
Astronomical Twilight
Moon
Length of Visible Light
Length of Day
Tomorrow will be .
, % of the Moon is Illuminated

Today's Extremes

Country Highs Country Lows

Community

WunderPhotos

Upload Photos

1,790,370 photos uploaded!

WunderBlogs® & News

Nearby

Air Quality

  Air Quality AQ Index Pollutant
Not available.

Snow Depth

Station Depth Elevation

Earthquake Activity

City Distance Mag. Time & Date
Minimum magnitude displayed is 2.5.

Coastal Water Temperatures

Place Temperature

Nearby Weather Stations